Time;durP1;ratioP1;P1;durP2;ratioP2;P2;SDS_P1;SDS_P2;PMS_P1;PMS_P2;Temp;Humidity;BMP_temperature;BMP_pressure;BME280_temperature;BME280_humidity;BME280_pressure;Samples;Min_cycle;Max_cycle;Signal;HPM_P1;HPM_P2
2023/12/22 00:00:05;;;;;;;;;;;;;;;;;;5095670;27;19934;-86
2023/12/22 00:02:31;;;;;;;;;;;;;;;;;;5128873;27;19927;-86
2023/12/22 00:04:57;;;;;;;;;;;;;;;;;;5112543;27;19962;-86
2023/12/22 00:07:23;;;;;;;;;;;;;;;;;;5098423;27;20027;-85
2023/12/22 00:09:49;;;;;;;;;;;;;;;;;;5116917;27;20011;-83
2023/12/22 00:12:14;;;;;;;;;;;;;;;;;;5115933;27;19930;-86
2023/12/22 00:14:40;;;;;;;;;;;;;;;;;;5113949;27;20383;-86
2023/12/22 00:17:06;;;;;;;;;;;;;;;;;;5110109;27;19919;-86
2023/12/22 00:19:32;;;;;;;;;;;;;;;;;;5116246;27;19919;-86
2023/12/22 00:21:58;;;;;;;;;;;;;;;;;;5100197;27;19972;-85
2023/12/22 00:24:24;;;;;;;;;;;;;;;;;;5114968;27;19919;-85
2023/12/22 00:26:50;;;;;;;;;;;;;;;;;;5134400;27;20014;-85
2023/12/22 00:29:16;;;;;;;;;;;;;;;;;;5115360;27;19969;-85
2023/12/22 00:31:42;;;;;;;;;;;;;;;;;;5109563;28;19920;-85
2023/12/22 00:34:08;;;;;;;;;;;;;;;;;;5109797;27;19955;-84
2023/12/22 00:36:34;;;;;;;;;;;;;;;;;;5116683;27;20424;-85
2023/12/22 00:39:00;;;;;;;;;;;;;;;;;;5116136;27;20360;-85
2023/12/22 00:41:26;;;;;;;;;;;;;;;;;;5116863;27;20346;-85
2023/12/22 00:43:52;;;;;;;;;;;;;;;;;;5115640;27;20272;-84
2023/12/22 00:46:18;;;;;;;;;;;;;;;;;;5115443;27;19919;-85
2023/12/22 00:48:44;;;;;;;;;;;;;;;;;;5151259;27;19972;-86
2023/12/22 00:51:10;;;;;;;;;;;;;;;;;;5116445;27;19919;-85
2023/12/22 00:53:36;;;;;;;;;;;;;;;;;;5119897;27;19927;-84
2023/12/22 00:56:02;;;;;;;;;;;;;;;;;;5116552;27;19927;-84
2023/12/22 00:58:28;;;;;;;;;;;;;;;;;;5114794;27;19926;-83
2023/12/22 01:00:54;;;;;;;;;;;;;;;;;;5116297;27;20467;-84
2023/12/22 01:03:20;;;;;;;;;;;;;;;;;;5098269;27;20353;-84
2023/12/22 01:05:46;;;;;;;;;;;;;;;;;;5116423;27;20284;-84
2023/12/22 01:08:12;;;;;;;;;;;;;;;;;;5114966;27;19994;-83
2023/12/22 01:10:38;;;;;;;;;;;;;;;;;;5115889;27;19919;-84
2023/12/22 01:13:04;;;;;;;;;;;;;;;;;;5097861;27;19923;-84
2023/12/22 01:15:30;;;;;;;;;;;;;;;;;;5115340;27;19967;-84
2023/12/22 01:17:56;;;;;;;;;;;;;;;;;;5132142;27;19967;-83
2023/12/22 01:20:22;;;;;;;;;;;;;;;;;;5115064;27;19926;-84
2023/12/22 01:22:48;;;;;;;;;;;;;;;;;;5115688;27;19967;-83
2023/12/22 01:25:14;;;;;;;;;;;;;;;;;;5098788;27;19924;-84
2023/12/22 01:27:39;;;;;;;;;;;;;;;;;;5108064;27;19919;-85
2023/12/22 01:30:05;;;;;;;;;;;;;;;;;;5128750;27;19920;-84
2023/12/22 01:32:34;;;;;;;;;;;;;;;;;;5098608;27;20418;-84
2023/12/22 01:35:03;;;;;;;;;;;;;;;;;;5114461;27;19919;-84
2023/12/22 01:37:29;;;;;;;;;;;;;;;;;;5128255;27;20396;-84
2023/12/22 01:39:55;;;;;;;;;;;;;;;;;;5122738;27;19966;-84
2023/12/22 01:42:21;;;;;;;;;;;;;;;;;;5104606;28;19919;-84
2023/12/22 01:44:47;;;;;;;;;;;;;;;;;;5112141;28;19927;-84
2023/12/22 01:47:13;;;;;;;;;;;;;;;;;;5112451;28;19951;-84
2023/12/22 01:49:39;;;;;;;;;;;;;;;;;;5093214;28;20473;-84
2023/12/22 01:52:05;;;;;;;;;;;;;;;;;;5104500;28;20357;-84
2023/12/22 01:54:31;;;;;;;;;;;;;;;;;;5145918;27;20325;-84
2023/12/22 01:56:57;;;;;;;;;;;;;;;;;;5145519;27;19920;-83
2023/12/22 01:59:23;;;;;;;;;;;;;;;;;;5110645;28;19919;-84
2023/12/22 02:01:49;;;;;;;;;;;;;;;;;;5129049;27;20474;-84
2023/12/22 02:04:14;;;;;;;;;;;;;;;;;;5110954;28;19923;-85
2023/12/22 02:06:41;;;;;;;;;;;;;;;;;;5111444;28;19916;-85
2023/12/22 02:09:07;;;;;;;;;;;;;;;;;;5111342;28;19926;-84
2023/12/22 02:11:33;;;;;;;;;;;;;;;;;;5110498;28;19920;-84
2023/12/22 02:13:59;;;;;;;;;;;;;;;;;;5093922;28;20521;-84
2023/12/22 02:16:25;;;;;;;;;;;;;;;;;;5092831;28;19942;-84
2023/12/22 02:18:51;;;;;;;;;;;;;;;;;;5110967;28;19923;-84
2023/12/22 02:21:16;;;;;;;;;;;;;;;;;;5094615;28;19920;-84
2023/12/22 02:23:43;;;;;;;;;;;;;;;;;;5094116;28;19946;-84
2023/12/22 02:26:09;;;;;;;;;;;;;;;;;;5111446;28;19920;-84
2023/12/22 02:28:35;;;;;;;;;;;;;;;;;;5092700;28;19920;-84
2023/12/22 02:31:01;;;;;;;;;;;;;;;;;;5114559;27;19920;-83
2023/12/22 02:33:27;;;;;;;;;;;;;;;;;;5093509;28;19980;-84
2023/12/22 02:35:53;;;;;;;;;;;;;;;;;;5127929;28;19965;-83
2023/12/22 02:38:19;;;;;;;;;;;;;;;;;;5132200;28;19925;-84
2023/12/22 02:40:45;;;;;;;;;;;;;;;;;;5114272;28;20010;-84
2023/12/22 02:43:11;;;;;;;;;;;;;;;;;;5104783;28;19927;-84
2023/12/22 02:45:37;;;;;;;;;;;;;;;;;;5131745;28;19923;-84
2023/12/22 02:48:03;;;;;;;;;;;;;;;;;;5114872;28;19927;-84
2023/12/22 02:50:28;;;;;;;;;;;;;;;;;;5096970;28;20072;-84
2023/12/22 02:52:54;;;;;;;;;;;;;;;;;;5114621;28;20376;-84
2023/12/22 02:55:20;;;;;;;;;;;;;;;;;;5097974;28;20387;-84
2023/12/22 02:57:46;;;;;;;;;;;;;;;;;;5113750;28;19926;-84
2023/12/22 03:00:12;;;;;;;;;;;;;;;;;;5114542;28;19919;-84
2023/12/22 03:02:38;;;;;;;;;;;;;;;;;;5112162;28;19919;-84
2023/12/22 03:05:04;;;;;;;;;;;;;;;;;;5114298;28;19942;-84
2023/12/22 03:07:30;;;;;;;;;;;;;;;;;;5131303;28;19919;-83
2023/12/22 03:09:56;;;;;;;;;;;;;;;;;;5131686;28;19975;-84
2023/12/22 03:12:22;;;;;;;;;;;;;;;;;;5113983;28;19974;-84
2023/12/22 03:14:48;;;;;;;;;;;;;;;;;;5097162;28;19920;-84
2023/12/22 03:17:14;;;;;;;;;;;;;;;;;;5114820;28;20360;-84
2023/12/22 03:19:40;;;;;;;;;;;;;;;;;;5113812;28;19975;-83
2023/12/22 03:22:06;;;;;;;;;;;;;;;;;;5097541;28;19927;-83
2023/12/22 03:24:33;;;;;;;;;;;;;;;;;;5101888;28;20349;-83
2023/12/22 03:26:59;;;;;;;;;;;;;;;;;;5114004;28;19920;-82
2023/12/22 03:29:25;;;;;;;;;;;;;;;;;;5114034;28;20276;-83
2023/12/22 03:31:51;;;;;;;;;;;;;;;;;;5131008;28;20056;-84
2023/12/22 03:34:17;;;;;;;;;;;;;;;;;;5114001;28;19946;-84
2023/12/22 03:36:43;;;;;;;;;;;;;;;;;;5113653;28;19919;-83
2023/12/22 03:39:09;;;;;;;;;;;;;;;;;;5114152;27;19970;-84
2023/12/22 03:41:35;;;;;;;;;;;;;;;;;;5134326;27;19926;-83
2023/12/22 03:44:01;;;;;;;;;;;;;;;;;;5134254;27;19919;-84
2023/12/22 03:46:27;;;;;;;;;;;;;;;;;;5117308;27;19976;-83
2023/12/22 03:48:53;;;;;;;;;;;;;;;;;;5134279;27;19930;-83
2023/12/22 03:51:19;;;;;;;;;;;;;;;;;;5117778;27;19919;-83
2023/12/22 03:53:45;;;;;;;;;;;;;;;;;;5117437;27;19919;-84
2023/12/22 03:56:11;;;;;;;;;;;;;;;;;;5117914;27;19972;-84
2023/12/22 03:58:37;;;;;;;;;;;;;;;;;;5133529;27;19926;-83
2023/12/22 04:01:03;;;;;;;;;;;;;;;;;;5134886;27;19968;-83
2023/12/22 04:03:29;;;;;;;;;;;;;;;;;;5134228;27;19923;-84
2023/12/22 04:05:55;;;;;;;;;;;;;;;;;;5116215;27;19919;-84
2023/12/22 04:08:21;;;;;;;;;;;;;;;;;;5117316;27;20359;-84
2023/12/22 04:10:47;;;;;;;;;;;;;;;;;;5116883;27;19919;-83
2023/12/22 04:13:12;;;;;;;;;;;;;;;;;;5115946;27;20006;-83
2023/12/22 04:15:38;;;;;;;;;;;;;;;;;;5117524;27;20394;-83
2023/12/22 04:18:04;;;;;;;;;;;;;;;;;;5117150;27;20396;-83
2023/12/22 04:20:31;;;;;;;;;;;;;;;;;;5117202;27;19923;-84
2023/12/22 04:22:57;;;;;;;;;;;;;;;;;;5116746;27;20014;-83
2023/12/22 04:25:24;;;;;;;;;;;;;;;;;;5117314;27;20437;-83
2023/12/22 04:27:50;;;;;;;;;;;;;;;;;;5115416;27;19919;-83
2023/12/22 04:30:16;;;;;;;;;;;;;;;;;;5099615;27;20382;-83
2023/12/22 04:32:42;;;;;;;;;;;;;;;;;;5116393;27;19927;-82
2023/12/22 04:35:08;;;;;;;;;;;;;;;;;;5116316;27;19941;-82
2023/12/22 04:37:40;;;;;;;;;;;;;;;;;;5100388;27;19926;-84
2023/12/22 04:40:06;;;;;;;;;;;;;;;;;;5116119;27;19919;-83
2023/12/22 04:42:32;;;;;;;;;;;;;;;;;;5112434;28;20002;-84
2023/12/22 04:44:58;;;;;;;;;;;;;;;;;;5096004;28;19993;-84
2023/12/22 04:47:24;;;;;;;;;;;;;;;;;;5134149;27;19923;-84
2023/12/22 04:49:50;;;;;;;;;;;;;;;;;;5115581;27;19919;-84
2023/12/22 04:52:16;;;;;;;;;;;;;;;;;;5115336;27;19923;-84
2023/12/22 04:54:42;;;;;;;;;;;;;;;;;;5133599;27;19920;-83
2023/12/22 04:57:08;;;;;;;;;;;;;;;;;;5102626;28;19920;-84
2023/12/22 04:59:34;;;;;;;;;;;;;;;;;;5113093;28;20365;-84
2023/12/22 05:02:00;;;;;;;;;;;;;;;;;;5099324;27;20391;-84
2023/12/22 05:04:26;;;;;;;;;;;;;;;;;;5133133;27;19972;-83
2023/12/22 05:06:52;;;;;;;;;;;;;;;;;;5115650;27;19919;-84
2023/12/22 05:09:18;;;;;;;;;;;;;;;;;;5116419;27;19923;-83
2023/12/22 05:11:44;;;;;;;;;;;;;;;;;;5078850;28;20425;-83
2023/12/22 05:14:10;;;;;;;;;;;;;;;;;;5094485;28;20070;-83
2023/12/22 05:16:36;;;;;;;;;;;;;;;;;;5087480;27;19967;-84
2023/12/22 05:19:02;;;;;;;;;;;;;;;;;;5132437;27;20329;-83
2023/12/22 05:21:28;;;;;;;;;;;;;;;;;;5104994;27;19942;-82
2023/12/22 05:23:54;;;;;;;;;;;;;;;;;;5132694;27;19938;-83
2023/12/22 05:26:20;;;;;;;;;;;;;;;;;;5133141;27;19977;-83
2023/12/22 05:28:45;;;;;;;;;;;;;;;;;;5121928;27;19920;-83
2023/12/22 05:31:12;;;;;;;;;;;;;;;;;;5149199;27;19926;-83
2023/12/22 05:33:39;;;;;;;;;;;;;;;;;;5132665;27;19919;-83
2023/12/22 05:36:05;;;;;;;;;;;;;;;;;;5114955;27;19919;-83
2023/12/22 05:38:31;;;;;;;;;;;;;;;;;;5115008;27;20344;-84
2023/12/22 05:40:57;;;;;;;;;;;;;;;;;;5115077;27;19971;-84
2023/12/22 05:43:22;;;;;;;;;;;;;;;;;;5108049;27;19924;-84
2023/12/22 05:45:48;;;;;;;;;;;;;;;;;;5116281;27;20017;-84
2023/12/22 05:48:15;;;;;;;;;;;;;;;;;;5114817;27;19927;-83
2023/12/22 05:50:40;;;;;;;;;;;;;;;;;;5115590;27;19919;-84
2023/12/22 05:53:06;;;;;;;;;;;;;;;;;;5103158;27;19942;-84
2023/12/22 05:55:32;;;;;;;;;;;;;;;;;;5115756;27;20010;-84
2023/12/22 05:57:58;;;;;;;;;;;;;;;;;;5131331;27;19919;-83
2023/12/22 06:00:24;;;;;;;;;;;;;;;;;;5132045;27;19928;-84
2023/12/22 06:02:52;;;;;;;;;;;;;;;;;;5101788;28;19920;-83
2023/12/22 06:05:18;;;;;;;;;;;;;;;;;;5110992;28;19926;-83
2023/12/22 06:07:44;;;;;;;;;;;;;;;;;;5132547;27;19923;-83
2023/12/22 06:10:10;;;;;;;;;;;;;;;;;;5132164;27;19926;-84
2023/12/22 06:12:36;;;;;;;;;;;;;;;;;;5097708;27;20010;-83
2023/12/22 06:15:02;;;;;;;;;;;;;;;;;;5097693;27;20352;-83
2023/12/22 06:17:28;;;;;;;;;;;;;;;;;;5115392;28;19919;-83
2023/12/22 06:19:54;;;;;;;;;;;;;;;;;;5113661;27;19923;-84
2023/12/22 06:22:21;;;;;;;;;;;;;;;;;;5131440;27;20388;-83
2023/12/22 06:24:47;;;;;;;;;;;;;;;;;;5114654;27;19919;-83
2023/12/22 06:27:13;;;;;;;;;;;;;;;;;;5113663;27;19958;-84
2023/12/22 06:34:50;;;;;;;;;;;;;;;;;;5259941;22;20258;-83
2023/12/22 06:37:16;;;;;;;;;;;;;;;;;;5033002;28;19924;-82
2023/12/22 06:39:42;;;;;;;;;;;;;;;;;;5050641;28;20057;-82
2023/12/22 06:42:12;;;;;;;;;;;;;;;;;;5031469;28;20388;-82
2023/12/22 06:44:38;;;;;;;;;;;;;;;;;;5034268;28;19920;-82
2023/12/22 06:47:05;;;;;;;;;;;;;;;;;;5033350;28;19931;-82
2023/12/22 06:49:31;;;;;;;;;;;;;;;;;;5049701;28;19927;-82
2023/12/22 06:51:57;;;;;;;;;;;;;;;;;;5049579;28;19921;-82
2023/12/22 06:54:23;;;;;;;;;;;;;;;;;;5033772;28;19972;-83
2023/12/22 06:56:49;;;;;;;;;;;;;;;;;;5050793;28;19920;-83
2023/12/22 06:59:14;;;;;;;;;;;;;;;;;;5049073;28;19921;-83
2023/12/22 07:01:40;;;;;;;;;;;;;;;;;;5033651;28;20372;-82
2023/12/22 07:04:06;;;;;;;;;;;;;;;;;;5032870;28;19964;-83
2023/12/22 07:06:32;;;;;;;;;;;;;;;;;;5049827;28;19979;-82
2023/12/22 07:08:58;;;;;;;;;;;;;;;;;;5033499;28;19920;-83
2023/12/22 07:11:24;;;;;;;;;;;;;;;;;;5049488;28;19921;-82
2023/12/22 07:13:50;;;;;;;;;;;;;;;;;;5032525;28;19920;-82
2023/12/22 07:16:16;;;;;;;;;;;;;;;;;;5035913;28;19927;-82
2023/12/22 07:18:42;;;;;;;;;;;;;;;;;;5052172;28;19920;-82
2023/12/22 07:21:08;;;;;;;;;;;;;;;;;;5037137;28;19928;-82
2023/12/22 07:23:34;;;;;;;;;;;;;;;;;;5036311;28;19920;-82
2023/12/22 07:26:00;;;;;;;;;;;;;;;;;;5054309;28;19920;-82
2023/12/22 07:28:26;;;;;;;;;;;;;;;;;;5052078;28;19970;-77
2023/12/22 07:30:52;;;;;;;;;;;;;;;;;;5037067;28;19921;-83
2023/12/22 07:33:18;;;;;;;;;;;;;;;;;;5037004;28;20318;-82
2023/12/22 07:35:44;;;;;;;;;;;;;;;;;;5038486;28;19921;-79
2023/12/22 07:38:10;;;;;;;;;;;;;;;;;;5054188;28;20510;-83
2023/12/22 07:40:36;;;;;;;;;;;;;;;;;;5054171;28;20284;-82
2023/12/22 07:43:02;;;;;;;;;;;;;;;;;;5035937;28;19974;-82
2023/12/22 07:45:28;;;;;;;;;;;;;;;;;;5036153;28;19979;-83
2023/12/22 07:47:54;;;;;;;;;;;;;;;;;;5053884;28;19927;-81
2023/12/22 07:50:21;;;;;;;;;;;;;;;;;;5035470;28;20015;-81
2023/12/22 07:52:47;;;;;;;;;;;;;;;;;;5036896;28;19928;-82
2023/12/22 07:55:13;;;;;;;;;;;;;;;;;;5036645;28;20012;-82
2023/12/22 07:57:39;;;;;;;;;;;;;;;;;;5034943;28;20019;-82
2023/12/22 08:00:05;;;;;;;;;;;;;;;;;;5036075;28;19920;-82
2023/12/22 08:02:31;;;;;;;;;;;;;;;;;;5051689;28;20411;-82
2023/12/22 08:04:57;;;;;;;;;;;;;;;;;;5035886;28;19921;-82
2023/12/22 08:07:23;;;;;;;;;;;;;;;;;;5052147;28;19931;-82
2023/12/22 08:09:49;;;;;;;;;;;;;;;;;;5036783;28;20345;-82
2023/12/22 08:12:15;;;;;;;;;;;;;;;;;;5035192;28;20015;-83
2023/12/22 08:14:41;;;;;;;;;;;;;;;;;;5036340;28;20006;-82
2023/12/22 08:17:07;;;;;;;;;;;;;;;;;;5051950;28;19924;-81
2023/12/22 08:19:33;;;;;;;;;;;;;;;;;;5052010;28;19932;-82
2023/12/22 08:21:59;;;;;;;;;;;;;;;;;;5036099;28;19921;-82
2023/12/22 08:24:25;;;;;;;;;;;;;;;;;;5035618;28;19921;-81
2023/12/22 08:26:51;;;;;;;;;;;;;;;;;;5050984;28;20004;-83
2023/12/22 08:29:20;;;;;;;;;;;;;;;;;;5035113;28;20399;-81
2023/12/22 08:31:47;;;;;;;;;;;;;;;;;;5035018;28;20062;-82
2023/12/22 08:34:13;;;;;;;;;;;;;;;;;;5051722;28;20095;-82
2023/12/22 08:36:39;;;;;;;;;;;;;;;;;;5034420;28;20004;-79
2023/12/22 08:39:05;;;;;;;;;;;;;;;;;;5051373;28;20375;-80
2023/12/22 08:41:35;;;;;;;;;;;;;;;;;;5052425;28;19967;-81
2023/12/22 08:44:01;;;;;;;;;;;;;;;;;;5052199;28;19921;-78
2023/12/22 08:46:27;;;;;;;;;;;;;;;;;;5036319;28;19921;-83
2023/12/22 08:48:53;;;;;;;;;;;;;;;;;;5051506;28;19986;-83
2023/12/22 08:51:19;;;;;;;;;;;;;;;;;;5052184;28;20399;-85
2023/12/22 08:53:45;;;;;;;;;;;;;;;;;;5052055;28;19921;-84
2023/12/22 08:56:11;;;;;;;;;;;;;;;;;;5052179;28;19920;-83
2023/12/22 08:58:37;;;;;;;;;;;;;;;;;;5045580;28;19921;-83
2023/12/22 09:01:03;;;;;;;;;;;;;;;;;;5035385;28;19978;-83
2023/12/22 09:03:30;;;;;;;;;;;;;;;;;;5052197;28;19924;-83
2023/12/22 09:05:56;;;;;;;;;;;;;;;;;;5052232;28;20045;-83
2023/12/22 09:08:22;;;;;;;;;;;;;;;;;;5035689;28;20003;-83
2023/12/22 09:10:49;;;;;;;;;;;;;;;;;;5035133;28;19928;-83
2023/12/22 09:13:15;;;;;;;;;;;;;;;;;;5025245;28;19971;-84
2023/12/22 09:15:41;;;;;;;;;;;;;;;;;;5016364;28;19921;-85
2023/12/22 09:18:07;;;;;;;;;;;;;;;;;;5023363;28;19943;-84
2023/12/22 09:20:33;;;;;;;;;;;;;;;;;;5051399;28;20385;-84
2023/12/22 09:22:59;;;;;;;;;;;;;;;;;;5059828;28;19971;-84
2023/12/22 09:25:27;;;;;;;;;;;;;;;;;;5058041;28;19969;-86
2023/12/22 09:28:02;;;;;;;;;;;;;;;;;;5052119;28;20439;-86
2023/12/22 09:30:37;;;;;;;;;;;;;;;;;;5051896;28;20297;-84
2023/12/22 09:33:03;;;;;;;;;;;;;;;;;;5041659;28;20369;-84
2023/12/22 09:35:35;;;;;;;;;;;;;;;;;;5048455;28;19920;-83
2023/12/22 09:38:01;;;;;;;;;;;;;;;;;;5030806;28;19921;-86
2023/12/22 09:40:36;;;;;;;;;;;;;;;;;;5048585;28;19920;-83
2023/12/22 09:43:12;;;;;;;;;;;;;;;;;;5044120;28;20365;-78
2023/12/22 09:45:38;;;;;;;;;;;;;;;;;;5030472;28;19960;-79
2023/12/22 09:48:04;;;;;;;;;;;;;;;;;;5050277;28;20422;-82
2023/12/22 09:50:30;;;;;;;;;;;;;;;;;;5049954;28;19921;-84
2023/12/22 09:53:14;;;;;;;;;;;;;;;;;;5033983;28;20373;-82
2023/12/22 09:55:41;;;;;;;;;;;;;;;;;;5048999;28;20346;-81
2023/12/22 09:58:07;;;;;;;;;;;;;;;;;;5046751;28;19921;-81
2023/12/22 10:00:55;;;;;;;;;;;;;;;;;;5045763;28;19921;-81
2023/12/22 10:03:21;;;;;;;;;;;;;;;;;;5030784;28;19920;-81
2023/12/22 10:05:59;;;;;;;;;;;;;;;;;;5036417;28;19927;-81
2023/12/22 10:08:31;;;;;;;;;;;;;;;;;;5033952;28;19974;-83
2023/12/22 10:11:06;;;;;;;;;;;;;;;;;;5052497;28;19959;-82
2023/12/22 10:13:40;;;;;;;;;;;;;;;;;;5036852;28;19979;-82
2023/12/22 10:16:06;;;;;;;;;;;;;;;;;;5051403;28;19964;-84
2023/12/22 10:18:32;;;;;;;;;;;;;;;;;;5049756;28;19948;-84
2023/12/22 10:20:59;;;;;;;;;;;;;;;;;;5034461;28;20357;-83
2023/12/22 10:23:25;;;;;;;;;;;;;;;;;;5033846;28;19924;-82
2023/12/22 10:25:51;;;;;;;;;;;;;;;;;;5034029;28;19925;-78
2023/12/22 10:28:21;;;;;;;;;;;;;;;;;;5028659;28;19921;-82
2023/12/22 10:30:47;;;;;;;;;;;;;;;;;;5030330;28;19920;-81
2023/12/22 10:33:13;;;;;;;;;;;;;;;;;;5032531;28;19932;-81
2023/12/22 10:35:39;;;;;;;;;;;;;;;;;;5033348;28;20000;-82
2023/12/22 10:38:05;;;;;;;;;;;;;;;;;;5050940;28;19920;-81
2023/12/22 10:40:31;;;;;;;;;;;;;;;;;;5050821;28;19931;-82
2023/12/22 10:42:57;;;;;;;;;;;;;;;;;;5032071;28;19947;-82
2023/12/22 10:45:23;;;;;;;;;;;;;;;;;;5048166;28;19924;-83
2023/12/22 10:47:53;;;;;;;;;;;;;;;;;;5034182;28;20347;-81
2023/12/22 10:50:19;;;;;;;;;;;;;;;;;;5036928;28;20078;-82
2023/12/22 10:52:45;;;;;;;;;;;;;;;;;;5037633;28;20015;-81
2023/12/22 10:55:11;;;;;;;;;;;;;;;;;;5053781;28;19921;-81
2023/12/22 10:57:38;;;;;;;;;;;;;;;;;;5037395;28;19921;-80
2023/12/22 11:00:04;;;;;;;;;;;;;;;;;;5054179;28;19920;-80
2023/12/22 11:02:30;;;;;;;;;;;;;;;;;;5038063;28;19920;-81
2023/12/22 11:04:56;;;;;;;;;;;;;;;;;;5036834;28;19924;-80
2023/12/22 11:07:22;;;;;;;;;;;;;;;;;;5037142;28;19975;-81
2023/12/22 11:09:49;;;;;;;;;;;;;;;;;;5053768;28;19990;-80
2023/12/22 11:12:15;;;;;;;;;;;;;;;;;;5053412;28;19924;-81
2023/12/22 11:14:41;;;;;;;;;;;;;;;;;;5054218;28;19960;-83
2023/12/22 11:17:07;;;;;;;;;;;;;;;;;;5037418;28;19959;-81
2023/12/22 11:19:33;;;;;;;;;;;;;;;;;;5037339;28;19924;-81
2023/12/22 11:21:59;;;;;;;;;;;;;;;;;;5035687;28;19952;-82
2023/12/22 11:24:25;;;;;;;;;;;;;;;;;;5037692;28;19921;-83
2023/12/22 11:26:51;;;;;;;;;;;;;;;;;;5037030;28;19943;-81
2023/12/22 11:29:18;;;;;;;;;;;;;;;;;;5036665;28;19920;-81
2023/12/22 11:31:44;;;;;;;;;;;;;;;;;;5053703;28;20014;-84
2023/12/22 11:34:11;;;;;;;;;;;;;;;;;;5053301;28;19964;-81
2023/12/22 11:36:37;;;;;;;;;;;;;;;;;;5037545;28;20312;-79
2023/12/22 11:39:04;;;;;;;;;;;;;;;;;;5029646;28;20489;-82
2023/12/22 11:41:30;;;;;;;;;;;;;;;;;;5033509;28;19928;-80
2023/12/22 11:43:56;;;;;;;;;;;;;;;;;;5045434;28;19925;-81
2023/12/22 11:46:23;;;;;;;;;;;;;;;;;;5030383;28;19927;-81
2023/12/22 11:48:49;;;;;;;;;;;;;;;;;;5052073;28;20421;-82
2023/12/22 11:51:15;;;;;;;;;;;;;;;;;;5046784;28;20004;-82
2023/12/22 11:53:41;;;;;;;;;;;;;;;;;;5053225;28;20011;-83
2023/12/22 11:56:10;;;;;;;;;;;;;;;;;;5046641;28;19928;-80
2023/12/22 11:58:36;;;;;;;;;;;;;;;;;;5050365;28;19935;-80
2023/12/22 12:01:05;;;;;;;;;;;;;;;;;;5025742;28;19970;-80
2023/12/22 12:03:31;;;;;;;;;;;;;;;;;;5022718;28;19975;-80
2023/12/22 12:05:57;;;;;;;;;;;;;;;;;;5052392;28;19996;-81
2023/12/22 12:08:23;;;;;;;;;;;;;;;;;;5027946;28;19979;-81
2023/12/22 12:10:49;;;;;;;;;;;;;;;;;;5036025;28;19975;-82
2023/12/22 12:13:15;;;;;;;;;;;;;;;;;;5052200;28;19928;-80
2023/12/22 12:15:41;;;;;;;;;;;;;;;;;;5053300;28;20395;-81
2023/12/22 12:18:07;;;;;;;;;;;;;;;;;;5035673;28;19921;-81
2023/12/22 12:20:34;;;;;;;;;;;;;;;;;;5040573;28;19979;-81
2023/12/22 12:23:00;;;;;;;;;;;;;;;;;;5051361;28;19970;-81
2023/12/22 12:25:26;;;;;;;;;;;;;;;;;;5034847;28;19928;-81
2023/12/22 12:27:52;;;;;;;;;;;;;;;;;;5025080;28;20362;-83
2023/12/22 12:30:18;;;;;;;;;;;;;;;;;;5045522;28;20003;-81
2023/12/22 12:32:44;;;;;;;;;;;;;;;;;;5052544;28;20059;-80
2023/12/22 12:35:10;;;;;;;;;;;;;;;;;;5034152;28;19928;-79
2023/12/22 12:37:36;;;;;;;;;;;;;;;;;;5044191;28;19925;-79
2023/12/22 12:40:04;;;;;;;;;;;;;;;;;;5051716;28;20408;-81
2023/12/22 12:42:31;;;;;;;;;;;;;;;;;;5050316;28;19968;-80
2023/12/22 12:44:57;;;;;;;;;;;;;;;;;;5052004;28;19920;-81
2023/12/22 12:47:23;;;;;;;;;;;;;;;;;;5033417;28;19946;-80
2023/12/22 12:49:49;;;;;;;;;;;;;;;;;;5039633;28;19953;-81
2023/12/22 12:52:15;;;;;;;;;;;;;;;;;;5030267;28;20420;-81
2023/12/22 12:54:41;;;;;;;;;;;;;;;;;;5049135;28;19920;-80
2023/12/22 12:57:07;;;;;;;;;;;;;;;;;;5040166;28;19970;-81
2023/12/22 12:59:33;;;;;;;;;;;;;;;;;;5025867;28;19924;-81
2023/12/22 13:02:01;;;;;;;;;;;;;;;;;;5051115;28;20011;-81
2023/12/22 13:04:27;;;;;;;;;;;;;;;;;;5041757;28;19928;-80
2023/12/22 13:06:53;;;;;;;;;;;;;;;;;;5038298;28;19925;-81
2023/12/22 13:09:19;;;;;;;;;;;;;;;;;;5046938;28;20028;-81
2023/12/22 13:11:46;;;;;;;;;;;;;;;;;;5033706;28;20411;-79
2023/12/22 13:14:12;;;;;;;;;;;;;;;;;;5049261;28;20002;-79
2023/12/22 13:16:38;;;;;;;;;;;;;;;;;;5050846;28;20342;-80
2023/12/22 13:19:04;;;;;;;;;;;;;;;;;;5049062;28;19920;-79
2023/12/22 13:21:30;;;;;;;;;;;;;;;;;;5034725;28;19971;-81
2023/12/22 13:23:56;;;;;;;;;;;;;;;;;;5052384;28;19925;-80
2023/12/22 13:26:21;;;;;;;;;;;;;;;;;;5035773;28;19924;-79
2023/12/22 13:28:47;;;;;;;;;;;;;;;;;;5035326;28;19928;-80
2023/12/22 13:31:14;;;;;;;;;;;;;;;;;;5034423;28;19932;-79
2023/12/22 13:33:39;;;;;;;;;;;;;;;;;;5022679;28;19920;-79
2023/12/22 13:36:05;;;;;;;;;;;;;;;;;;5051106;28;19928;-82
2023/12/22 13:38:31;;;;;;;;;;;;;;;;;;5050862;28;19920;-78
2023/12/22 13:40:57;;;;;;;;;;;;;;;;;;5051501;28;19928;-79
2023/12/22 13:43:23;;;;;;;;;;;;;;;;;;5033002;28;19924;-80
2023/12/22 13:45:53;;;;;;;;;;;;;;;;;;5050295;28;19968;-80
2023/12/22 13:48:20;;;;;;;;;;;;;;;;;;5050429;28;19971;-80
2023/12/22 13:50:46;;;;;;;;;;;;;;;;;;5034722;28;19925;-80
2023/12/22 13:53:12;;;;;;;;;;;;;;;;;;5033947;28;19920;-80
2023/12/22 13:55:38;;;;;;;;;;;;;;;;;;5034603;28;19924;-80
2023/12/22 13:58:04;;;;;;;;;;;;;;;;;;5033324;28;19920;-80
2023/12/22 14:00:31;;;;;;;;;;;;;;;;;;5035016;28;19921;-80
2023/12/22 14:02:57;;;;;;;;;;;;;;;;;;5034960;28;19982;-80
2023/12/22 14:05:23;;;;;;;;;;;;;;;;;;5049435;28;20553;-80
2023/12/22 14:07:50;;;;;;;;;;;;;;;;;;5034182;28;19920;-80
2023/12/22 14:10:17;;;;;;;;;;;;;;;;;;5033625;28;19970;-80
2023/12/22 14:12:43;;;;;;;;;;;;;;;;;;5033950;28;20372;-80
2023/12/22 14:15:09;;;;;;;;;;;;;;;;;;5033582;28;20372;-80
2023/12/22 14:17:42;;;;;;;;;;;;;;;;;;5050958;28;19928;-79
2023/12/22 14:20:24;;;;;;;;;;;;;;;;;;5050230;28;19924;-79
2023/12/22 14:22:50;;;;;;;;;;;;;;;;;;5051103;28;19924;-79
2023/12/22 14:25:35;;;;;;;;;;;;;;;;;;5049298;28;19924;-79
2023/12/22 14:28:04;;;;;;;;;;;;;;;;;;5049090;28;19927;-80
2023/12/22 14:30:30;;;;;;;;;;;;;;;;;;5047794;28;20289;-80
2023/12/22 14:32:56;;;;;;;;;;;;;;;;;;5046860;28;19925;-80
2023/12/22 14:35:22;;;;;;;;;;;;;;;;;;5005532;28;19972;-80
2023/12/22 14:38:01;;;;;;;;;;;;;;;;;;5026149;28;19921;-80
2023/12/22 14:40:27;;;;;;;;;;;;;;;;;;5011061;28;19928;-80
2023/12/22 14:42:53;;;;;;;;;;;;;;;;;;4995440;28;19982;-81
2023/12/22 14:45:19;;;;;;;;;;;;;;;;;;4991698;28;19921;-81
2023/12/22 14:47:45;;;;;;;;;;;;;;;;;;4995300;28;19921;-81
2023/12/22 14:50:11;;;;;;;;;;;;;;;;;;5012337;28;19921;-84
2023/12/22 14:52:37;;;;;;;;;;;;;;;;;;5012079;28;19947;-81
2023/12/22 14:55:06;;;;;;;;;;;;;;;;;;4997172;28;20014;-81
2023/12/22 14:57:35;;;;;;;;;;;;;;;;;;5012234;28;19921;-81
2023/12/22 15:00:07;;;;;;;;;;;;;;;;;;4998124;28;20376;-81
2023/12/22 15:02:35;;;;;;;;;;;;;;;;;;4995769;28;19967;-82
2023/12/22 15:05:01;;;;;;;;;;;;;;;;;;5008012;28;20421;-82
2023/12/22 15:07:27;;;;;;;;;;;;;;;;;;5004629;28;20344;-82
2023/12/22 15:09:53;;;;;;;;;;;;;;;;;;5008953;28;20007;-82
2023/12/22 15:12:19;;;;;;;;;;;;;;;;;;5012072;28;19925;-82
2023/12/22 15:14:45;;;;;;;;;;;;;;;;;;5007591;28;19921;-82
2023/12/22 15:17:11;;;;;;;;;;;;;;;;;;5013757;28;19928;-82
2023/12/22 15:19:37;;;;;;;;;;;;;;;;;;4988986;28;20321;-82
2023/12/22 15:22:02;;;;;;;;;;;;;;;;;;5009942;28;19921;-83
2023/12/22 15:24:28;;;;;;;;;;;;;;;;;;4999335;28;19927;-82
2023/12/22 15:26:54;;;;;;;;;;;;;;;;;;4986067;28;20396;-82
2023/12/22 15:29:20;;;;;;;;;;;;;;;;;;4995203;28;19921;-81
2023/12/22 15:31:47;;;;;;;;;;;;;;;;;;4996457;28;19967;-82
2023/12/22 15:34:13;;;;;;;;;;;;;;;;;;5011185;28;20290;-83
2023/12/22 15:36:39;;;;;;;;;;;;;;;;;;5032357;28;19921;-81
2023/12/22 15:39:05;;;;;;;;;;;;;;;;;;5039744;28;20011;-82
2023/12/22 15:41:31;;;;;;;;;;;;;;;;;;5036255;28;19921;-82
2023/12/22 15:43:57;;;;;;;;;;;;;;;;;;5034227;28;19921;-82
2023/12/22 15:46:23;;;;;;;;;;;;;;;;;;5044154;28;19925;-81
2023/12/22 15:48:49;;;;;;;;;;;;;;;;;;5035451;28;19921;-81
2023/12/22 15:51:16;;;;;;;;;;;;;;;;;;5051740;28;19921;-83
2023/12/22 15:53:42;;;;;;;;;;;;;;;;;;5032261;28;20373;-81
2023/12/22 15:56:09;;;;;;;;;;;;;;;;;;5029566;28;19924;-82
2023/12/22 15:58:36;;;;;;;;;;;;;;;;;;5030577;28;19921;-81
2023/12/22 16:01:02;;;;;;;;;;;;;;;;;;5041343;28;20369;-81
2023/12/22 16:03:28;;;;;;;;;;;;;;;;;;5049801;28;19970;-82
2023/12/22 16:05:54;;;;;;;;;;;;;;;;;;5035222;28;19927;-81
2023/12/22 16:08:20;;;;;;;;;;;;;;;;;;5033734;28;19920;-83
2023/12/22 16:10:46;;;;;;;;;;;;;;;;;;5034793;28;19921;-82
2023/12/22 16:13:13;;;;;;;;;;;;;;;;;;5034107;28;20373;-81
2023/12/22 16:15:39;;;;;;;;;;;;;;;;;;5048819;28;20157;-83
2023/12/22 16:18:07;;;;;;;;;;;;;;;;;;5052190;28;20716;-81
2023/12/22 16:20:33;;;;;;;;;;;;;;;;;;5052112;28;19924;-79
2023/12/22 16:22:59;;;;;;;;;;;;;;;;;;5035891;28;19921;-78
2023/12/22 16:25:25;;;;;;;;;;;;;;;;;;5051756;28;19925;-79
2023/12/22 16:27:51;;;;;;;;;;;;;;;;;;5035738;28;20384;-78
2023/12/22 16:30:18;;;;;;;;;;;;;;;;;;5053011;28;20019;-79
2023/12/22 16:32:44;;;;;;;;;;;;;;;;;;5051977;28;19925;-78
2023/12/22 16:35:10;;;;;;;;;;;;;;;;;;5035654;28;19943;-79
2023/12/22 16:37:36;;;;;;;;;;;;;;;;;;5051553;28;19921;-78
2023/12/22 16:40:02;;;;;;;;;;;;;;;;;;5036012;28;19925;-78
2023/12/22 16:42:28;;;;;;;;;;;;;;;;;;5050078;28;20440;-78
2023/12/22 16:44:59;;;;;;;;;;;;;;;;;;5051099;28;19920;-77